Latest Weather Observations for Nuriootpa

IDS60801

Issued at 9:02 pm CDT Sunday 29 March 2015 (issued every 30 minutes, with the page automatically refreshed every 10 minutes)

About weather observations | Map of weather stations | Latest weather observations for SA | Other Formats
Station Details ID: 023373 Name: NURIOOTPA VITICULTURAL Lat: -34.48 Lon: 139.01 Height: 275.0 m
Data from the previous 72 hours. | See also: Recent months at Nuriootpa
Date/Time
CDT
Temp
°C
App
Temp
°C
Dew
Point
Rel
Hum
%
Delta-T
°C
Wind Press
QNH
hPa
Press
MSL
hPa
Rain
since 9 am
mm
Dir
 
Spd
km/h
Gust
km/h
Spd
kts
Gust
kts
29/09:00pm 19.3 17.9 8.7 50 5.6 SW 6 7 3 4 1023.9 1023.2 0.0
29/08:30pm 19.7 17.5 8.0 46 6.1 SSW 9 13 5 7 1023.6 1022.9 0.0
29/08:00pm 19.9 16.9 7.8 45 6.3 SW 13 17 7 9 1023.2 1022.4 0.0
29/07:30pm 20.3 17.7 7.8 44 6.5 SW 11 17 6 9 1022.9 1022.1 0.0
29/07:00pm 20.6 16.3 7.2 42 6.9 SW 19 24 10 13 1022.8 1022.0 0.0
29/06:30pm 21.4 17.1 6.8 38 7.5 SW 19 28 10 15 1022.4 1021.6 0.0
29/06:00pm 22.6 18.2 6.5 35 8.3 SW 19 26 10 14 1022.1 1021.3 0.0
29/05:30pm 23.3 20.6 5.4 31 9.1 W 9 13 5 7 1021.6 1020.9 0.0
29/05:00pm 23.3 20.0 4.8 30 9.3 W 11 17 6 9 1021.7 1021.0 0.0
29/04:30pm 22.8 17.7 4.2 29 9.2 WSW 20 30 11 16 1021.6 1020.9 0.0
29/04:00pm 23.6 19.1 4.1 28 9.7 WSW 17 24 9 13 1021.5 1020.8 0.0
29/03:30pm 23.4 18.6 2.7 25 10.0 WNW 17 24 9 13 1021.7 1021.0 0.0
29/03:00pm 24.9 21.3 3.2 24 10.7 W 11 19 6 10 1021.7 1021.0 0.0
29/02:30pm 23.9 19.9 3.0 25 10.2 WNW 13 22 7 12 1022.2 1021.4 0.0
29/02:00pm 23.3 19.9 3.8 28 9.6 WSW 11 22 6 12 1022.5 1021.7 0.0
29/01:30pm 23.8 19.8 2.8 25 10.2 W 13 20 7 11 1022.7 1021.9 0.0
29/01:00pm 23.0 19.7 2.3 25 9.9 WSW 9 20 5 11 1022.9 1022.1 0.0
29/12:30pm 22.7 19.1 3.1 27 9.5 NW 11 15 6 8 1023.3 1022.5 0.0
29/12:00pm 22.5 19.6 2.7 27 9.5 WNW 7 13 4 7 1023.6 1022.9 0.0
29/11:30am 22.6 20.0 3.2 28 9.4 NNE 6 11 3 6 1023.7 1023.0 0.0
29/11:00am 21.0 18.3 2.6 29 8.7 NE 6 11 3 6 1023.8 1023.1 0.0
29/10:30am 20.0 17.9 4.1 35 7.7 ENE 4 9 2 5 1023.8 1023.1 0.0
29/10:00am 17.2 15.1 5.8 47 5.6 NE 6 7 3 4 1024.1 1023.4 0.0
29/09:30am 13.8 13.1 6.9 63 3.4 CALM 0 0 0 0 1024.2 1023.5 0.0
29/09:00am 11.7 10.3 7.4 75 2.1 NE 4 6 2 3 1023.5 1022.8 0.0
29/08:30am 10.8 9.4 7.1 78 1.8 NE 4 9 2 5 1023.5 1022.8 0.0
29/08:00am 10.3 9.9 8.3 87 1.0 CALM 0 4 0 2 1023.3 1022.5 0.0
29/07:30am 10.2 9.2 7.3 82 1.4 NE 2 6 1 3 1022.9 1022.1 0.0
29/07:00am 10.0 8.7 7.5 84 1.2 NE 4 6 2 3 1022.5 1021.7 0.0
29/06:30am 10.0 9.4 7.5 84 1.2 CALM 0 0 0 0 1022.2 1021.4 0.0
29/06:00am 10.3 9.7 7.4 82 1.4 CALM 0 0 0 0 1021.9 1021.1 0.0
29/05:30am 10.4 8.6 7.1 80 1.6 ENE 6 7 3 4 1021.4 1020.7 0.0
29/05:00am 10.5 9.8 7.0 79 1.7 CALM 0 6 0 3 1021.4 1020.7 0.0
29/04:30am 10.4 9.8 7.5 82 1.4 CALM 0 0 0 0 1021.3 1020.6 0.0
29/04:00am 10.6 9.9 7.1 79 1.7 CALM 0 6 0 3 1021.3 1020.6 0.0
29/03:30am 10.6 8.7 6.8 77 1.8 ENE 6 7 3 4 1021.4 1020.7 0.0
29/03:00am 10.5 8.5 7.0 79 1.7 NE 7 7 4 4 1021.6 1020.9 0.0
29/02:30am 10.6 8.6 7.3 80 1.6 NE 7 7 4 4 1022.1 1021.3 0.0
29/02:00am 11.2 10.7 7.7 79 1.7 CALM 0 7 0 4 1022.3 1021.5 0.0
29/01:30am 12.1 11.7 8.1 76 2.0 CALM 0 0 0 0 1022.4 1021.6 0.0
29/01:00am 12.6 12.2 8.2 74 2.2 CALM 0 0 0 0 1022.4 1021.6 0.0
29/12:30am 12.4 12.1 8.6 77 1.9 CALM 0 0 0 0 1022.4 1021.6 0.0
29/12:00am 12.7 11.1 7.9 72 2.4 ENE 6 7 3 4 1022.3 1021.5 0.0
 
Date/Time
CDT
Temp
°C
App
Temp
°C
Dew
Point
Rel
Hum
%
Delta-T
°C
Wind Press
QNH
hPa
Press
MSL
hPa
Rain
since 9 am
mm
Dir
 
Spd
km/h
Gust
km/h
Spd
kts
Gust
kts
28/11:30pm 13.4 12.4 7.5 67 2.9 ENE 2 9 1 5 1022.5 1021.7 0.0
28/11:00pm 13.4 13.1 8.7 73 2.4 CALM 0 0 0 0 1022.7 1021.9 0.0
28/10:30pm 13.7 13.4 8.6 71 2.6 CALM 0 0 0 0 1022.8 1022.0 0.0
28/10:00pm 14.3 14.0 8.6 68 2.9 CALM 0 0 0 0 1023.0 1022.2 0.0
28/09:30pm 14.5 12.8 7.7 63 3.4 SE 6 9 3 5 1022.9 1022.1 0.0
28/09:00pm 15.1 13.2 6.5 56 4.2 SSE 6 7 3 4 1022.7 1021.9 0.0
28/08:30pm 17.0 14.3 5.8 47 5.5 W 9 13 5 7 1022.5 1021.7 0.0
28/08:00pm 17.5 14.9 6.0 46 5.7 SW 9 13 5 7 1022.3 1021.5 0.0
28/07:30pm 18.0 15.4 6.1 45 5.9 WSW 9 13 5 7 1022.0 1021.2 0.0
28/07:00pm 18.9 15.8 5.6 41 6.6 SW 11 19 6 10 1021.4 1020.7 0.0
28/06:30pm 20.4 16.7 4.5 35 7.8 WSW 13 19 7 10 1021.1 1020.4 0.0
28/06:00pm 21.2 16.7 2.0 28 9.0 WNW 15 20 8 11 1020.9 1020.2 0.0
28/05:30pm 21.3 17.2 2.2 28 9.0 WNW 13 20 7 11 1020.9 1020.2 0.0
28/05:00pm 21.4 16.9 2.4 28 9.0 W 15 22 8 12 1021.2 1020.5 0.0
28/04:30pm 21.7 17.3 2.9 29 9.0 WNW 15 20 8 11 1021.4 1020.7 0.0
28/04:00pm 21.3 16.9 2.5 29 8.9 W 15 22 8 12 1021.6 1020.9 0.0
28/03:30pm 21.6 16.9 3.4 30 8.8 W 17 26 9 14 1022.1 1021.3 0.0
28/03:00pm 21.0 16.6 4.8 34 8.0 WNW 17 28 9 15 1022.5 1021.7 0.0
28/02:30pm 20.9 17.2 4.7 34 8.0 NW 13 17 7 9 1022.8 1022.0 0.0
28/02:00pm 20.5 17.4 5.7 38 7.4 N 11 19 6 10 1023.2 1022.4 0.0
28/01:30pm 19.2 15.8 6.0 42 6.6 N 13 24 7 13 1023.8 1023.1 0.0
28/01:00pm 19.0 15.7 6.5 44 6.3 NNW 13 22 7 12 1024.3 1023.6 0.0
28/12:30pm 19.3 16.1 6.7 44 6.4 NNW 13 20 7 11 1024.7 1024.0 0.0
28/12:00pm 19.1 16.1 7.6 47 5.9 NNE 13 22 7 12 1024.9 1024.2 0.0
28/11:30am 17.7 13.8 7.2 50 5.3 NE 17 26 9 14 1025.3 1024.6 0.0
28/11:00am 16.4 12.3 8.0 57 4.3 NE 19 26 10 14 1025.7 1024.9 0.0
28/10:30am 15.2 11.2 8.3 63 3.5 NE 19 30 10 16 1026.1 1025.3 0.0
28/10:00am 14.1 10.7 9.0 71 2.6 NE 17 22 9 12 1026.4 1025.6 0.0
28/09:30am 13.2 10.6 9.3 77 2.0 NE 13 19 7 10 1026.3 1025.5 0.0
28/09:00am 12.3 9.6 8.9 80 1.7 NE 13 20 7 11 1026.2 1025.4 0.0
28/08:30am 9.4 9.1 8.6 95 0.4 CALM 0 0 0 0 1026.2 1025.4 0.0
28/08:00am 6.9 6.0 6.2 95 0.3 CALM 0 0 0 0 1026.1 1025.3 0.0
28/07:30am 6.5 5.2 6.1 97 0.2 E 2 7 1 4 1025.7 1024.9 0.0
28/07:00am 7.4 5.5 6.5 94 0.4 ENE 6 7 3 4 1025.7 1024.9 0.0
28/06:30am 8.8 7.0 8.0 95 0.4 ENE 7 9 4 5 1025.7 1024.9 0.0
28/06:00am 8.7 6.9 7.9 95 0.4 NE 7 11 4 6 1025.7 1024.9 0.0
28/05:30am 8.9 7.1 8.1 95 0.4 E 7 13 4 7 1025.8 1025.0 0.0
28/05:00am 8.8 7.1 8.2 96 0.3 ENE 7 9 4 5 1025.5 1024.8 0.0
28/04:30am 9.2 7.7 8.4 95 0.4 ENE 6 9 3 5 1025.7 1024.9 0.0
28/04:00am 9.5 7.5 8.7 95 0.4 E 9 11 5 6 1025.4 1024.7 0.0
28/03:30am 9.2 7.6 8.6 96 0.3 NE 7 9 4 5 1025.5 1024.8 0.0
28/03:00am 9.7 8.3 8.9 95 0.4 ESE 6 11 3 6 1026.0 1025.2 0.0
28/02:30am 9.6 8.2 8.8 95 0.4 SE 6 9 3 5 1026.0 1025.2 0.0
28/02:00am 9.8 8.2 8.8 93 0.5 SE 7 11 4 6 1026.4 1025.6 0.0
28/01:30am 10.3 8.3 8.7 90 0.8 ESE 9 13 5 7 1026.6 1025.9 0.0
28/01:00am 10.7 7.6 8.7 87 1.0 SE 15 20 8 11 1026.3 1025.5 0.0
28/12:30am 10.8 8.4 8.6 86 1.1 SE 11 17 6 9 1026.4 1025.6 0.0
28/12:00am 11.0 8.2 8.6 85 1.2 SE 13 19 7 10 1026.7 1026.0 0.0
 
Date/Time
CDT
Temp
°C
App
Temp
°C
Dew
Point
Rel
Hum
%
Delta-T
°C
Wind Press
QNH
hPa
Press
MSL
hPa
Rain
since 9 am
mm
Dir
 
Spd
km/h
Gust
km/h
Spd
kts
Gust
kts
27/11:30pm 11.1 8.7 8.5 84 1.3 SE 11 15 6 8 1027.0 1026.3 0.0
27/11:00pm 11.2 8.7 8.2 82 1.5 SE 11 13 6 7 1027.1 1026.4 0.0
27/10:30pm 11.6 8.7 8.2 79 1.7 SE 13 20 7 11 1027.3 1026.6 0.0
27/10:00pm 12.1 9.2 8.1 76 2.0 SE 13 19 7 10 1027.3 1026.6 0.0
27/09:30pm 12.8 8.8 8.2 73 2.3 SE 19 24 10 13 1027.2 1026.5 0.0
27/09:00pm 13.9 10.0 7.0 63 3.4 SE 17 24 9 13 1026.9 1026.2 0.0
27/08:30pm 14.2 10.6 6.9 61 3.6 SE 15 24 8 13 1026.8 1026.1 0.0
27/08:00pm 15.0 11.3 6.4 56 4.2 SE 15 24 8 13 1026.5 1025.7 0.0
27/07:30pm 15.5 13.2 7.3 58 4.1 S 9 15 5 8 1026.3 1025.5 0.0
27/07:00pm 15.7 12.9 8.7 63 3.6 SW 13 19 7 10 1026.3 1025.5 0.0
27/06:30pm 15.9 13.4 8.3 60 3.9 WSW 11 17 6 9 1026.1 1025.3 0.0
27/06:00pm 16.0 12.3 7.9 58 4.1 WSW 17 22 9 12 1026.1 1025.3 0.0
27/05:30pm 16.8 13.7 7.3 53 4.8 WSW 13 19 7 10 1026.0 1025.2 0.0
27/05:00pm 17.2 14.1 7.3 52 5.0 SW 13 17 7 9 1026.0 1025.2 0.0
27/04:30pm 17.3 14.4 6.7 49 5.3 SW 11 17 6 9 1026.1 1025.3 0.0
27/04:00pm 17.4 13.2 5.8 46 5.7 WSW 17 26 9 14 1026.1 1025.3 0.0
27/03:30pm 18.1 14.7 5.7 44 6.1 WSW 13 19 7 10 1026.2 1025.4 0.0
27/03:00pm 17.6 14.1 5.5 45 5.9 SSW 13 19 7 10 1026.5 1025.7 0.0
27/02:30pm 16.9 13.4 5.6 47 5.5 WSW 13 26 7 14 1026.8 1026.1 0.0
27/02:00pm 17.5 14.5 5.9 46 5.7 WSW 11 20 6 11 1027.2 1026.5 0.0
27/01:30pm 16.5 12.9 5.0 46 5.5 SSW 13 22 7 12 1027.7 1027.0 0.0
27/01:00pm 16.4 13.2 4.9 46 5.5 SW 11 17 6 9 1028.1 1027.4 0.0
27/12:30pm 15.9 12.0 5.3 49 5.1 SW 15 24 8 13 1028.7 1028.0 0.0
27/12:00pm 15.3 12.5 5.2 51 4.8 W 9 15 5 8 1029.0 1028.3 0.0
27/11:30am 14.7 10.7 4.7 51 4.7 SW 15 24 8 13 1029.3 1028.6 0.0
27/11:00am 14.5 11.9 6.2 57 4.0 SW 9 13 5 7 1029.4 1028.7 0.0
27/10:30am 14.0 12.0 7.1 63 3.4 W 7 15 4 8 1029.6 1028.8 0.0
27/10:00am 13.4 11.0 6.8 64 3.2 WSW 9 13 5 7 1029.8 1029.1 0.0
27/09:30am 12.6 10.6 7.0 68 2.7 SW 7 13 4 7 1029.6 1028.8 0.0
27/09:00am 12.3 10.9 7.2 71 2.5 WSW 4 9 2 5 1029.6 1028.8 0.2
27/08:30am 11.6 10.7 7.7 77 1.9 WNW 2 7 1 4 1029.2 1028.5 0.2
27/08:00am 11.3 9.6 7.6 78 1.8 WNW 6 9 3 5 1029.0 1028.3 0.2
27/07:30am 10.9 10.5 8.3 84 1.3 CALM 0 0 0 0 1028.7 1028.0 0.2
27/07:00am 10.8 10.4 8.2 84 1.3 CALM 0 0 0 0 1028.2 1027.5 0.2
27/06:30am 10.6 10.3 8.6 87 1.0 CALM 0 0 0 0 1028.0 1027.3 0.2
27/06:00am 10.7 9.6 8.3 85 1.2 WNW 4 7 2 4 1027.7 1027.0 0.2
27/05:30am 10.7 9.9 8.0 83 1.3 WNW 2 6 1 3 1027.4 1026.7 0.2
27/05:00am 10.9 8.2 7.2 78 1.8 WSW 11 17 6 9 1027.5 1026.8 0.2
27/04:30am 11.0 9.1 7.7 80 1.6 SW 7 9 4 5 1027.5 1026.8 0.2
27/04:00am 11.2 8.8 7.0 75 2.0 W 9 11 5 6 1027.4 1026.7 0.2
27/03:30am 11.2 9.1 6.6 73 2.2 WSW 7 11 4 6 1027.6 1026.9 0.2
27/03:00am 11.4 9.2 6.3 71 2.4 WSW 7 11 4 6 1027.7 1027.0 0.2
27/02:30am 11.4 9.3 6.6 72 2.3 WSW 7 9 4 5 1027.9 1027.2 0.2
27/02:00am 11.5 9.6 6.7 72 2.3 WSW 6 9 3 5 1028.0 1027.3 0.2
27/01:30am 11.7 9.1 6.0 68 2.7 WSW 9 15 5 8 1028.2 1027.5 0.2
27/01:00am 11.8 9.2 5.9 67 2.8 WSW 9 13 5 7 1028.2 1027.5 0.2
27/12:30am 11.7 9.5 6.2 69 2.6 SW 7 9 4 5 1028.2 1027.5 0.2
27/12:00am 11.7 9.1 6.2 69 2.6 SSW 9 13 5 7 1028.2 1027.5 0.2
 
Date/Time
CDT
Temp
°C
App
Temp
°C
Dew
Point
Rel
Hum
%
Delta-T
°C
Wind Press
QNH
hPa
Press
MSL
hPa
Rain
since 9 am
mm
Dir
 
Spd
km/h
Gust
km/h
Spd
kts
Gust
kts
26/11:30pm 12.0 9.0 5.8 66 2.9 SSW 11 17 6 9 1028.4 1027.7 0.2
26/11:00pm 11.0 8.6 5.4 68 2.6 SSW 7 15 4 8 1028.3 1027.6 0.2
26/10:30pm 11.0 8.1 4.9 66 2.8 SSW 9 13 5 7 1028.2 1027.5 0.2
26/10:00pm 11.9 9.0 4.7 61 3.3 SW 9 13 5 7 1028.1 1027.4 0.2
26/09:30pm 11.6 8.6 4.3 61 3.3 SW 9 13 5 7 1028.1 1027.4 0.2

Other Formats:

Comma delimited format used in spreadsheet applications
http://www.bom.gov.au/fwo/IDS60801/IDS60801.94681.axf

JavaScript Object Notation format (JSON) in row-major order
http://www.bom.gov.au/fwo/IDS60801/IDS60801.94681.json